Meadowview, Virginia
Current Conditions -  °F | °C
As of 10:35 PM on Saturday 24 Jan 2015 (Local Time) from KVJI Reporting Station
Overcast Overcast  
Wind Chill: -3°   Ceiling: 3100
Heat Index:   Visibility: 10mi
Dew Point: -2°   Wind: 8mph
Humidity: 82%   Direction: 260°W
Pressure: 29.86"   Gusts: NA
Location:  36.76°N, 81.86°W
Report Text: KVJI 250335Z AUTO 26007KT 10SM OVC031 01/M01 A2986 RMK AO2 T00121015
Loading
Personal Weather Stations






























Interactive Weather Map New forecast layout! Learn more

10-Day Weather Forecast

Advertisements
Track Severe Weather on mobile